createdAt,value
2023-03-11T00:01:23.354Z,72.0
2023-03-11T00:06:23.149Z,72.1
2023-03-11T00:11:23.269Z,72.4
2023-03-11T00:16:23.265Z,72.6
2023-03-11T00:21:23.224Z,72.6
2023-03-11T00:26:23.143Z,72.8
2023-03-11T00:31:23.292Z,72.7
2023-03-11T00:36:23.107Z,72.7
2023-03-11T00:41:23.093Z,72.6
2023-03-11T00:46:23.305Z,72.6
2023-03-11T00:51:23.096Z,72.6
2023-03-11T00:56:23.145Z,72.6
2023-03-11T01:01:23.455Z,72.8
2023-03-11T01:06:23.482Z,73.0
2023-03-11T01:11:23.078Z,73.2
2023-03-11T01:16:23.190Z,73.2
2023-03-11T01:21:23.031Z,73.2
2023-03-11T01:26:23.072Z,73.1
2023-03-11T01:31:23.171Z,73.0
2023-03-11T01:36:22.993Z,73.0
2023-03-11T01:41:23.045Z,73.1
2023-03-11T01:46:23.185Z,73.1
2023-03-11T01:51:23.011Z,73.0
2023-03-11T01:56:22.978Z,73.0
2023-03-11T02:01:22.924Z,72.9
2023-03-11T02:06:22.937Z,72.9
2023-03-11T02:11:23.153Z,72.8
2023-03-11T02:16:23.082Z,72.7
2023-03-11T02:21:23.719Z,72.6
2023-03-11T02:26:23.301Z,72.5
2023-03-11T02:31:22.913Z,72.4
2023-03-11T02:36:23.379Z,72.4
2023-03-11T02:41:22.814Z,72.3
2023-03-11T02:46:23.748Z,72.3
2023-03-11T02:51:28.904Z,72.2
2023-03-11T02:56:28.902Z,72.2
2023-03-11T03:01:28.989Z,72.3
2023-03-11T03:06:28.818Z,72.3
2023-03-11T03:11:28.705Z,72.2
2023-03-11T03:16:28.957Z,72.3
2023-03-11T03:21:28.755Z,72.0
2023-03-11T03:26:28.840Z,71.8
2023-03-11T03:31:29.194Z,71.9
2023-03-11T03:36:28.757Z,72.0
2023-03-11T03:41:28.807Z,72.1
2023-03-11T03:46:29.148Z,72.3
2023-03-11T03:51:28.795Z,72.5
2023-03-11T03:56:28.626Z,72.7
2023-03-11T04:01:28.914Z,72.8
2023-03-11T04:06:28.837Z,72.9
2023-03-11T04:11:28.681Z,73.0
2023-03-11T04:16:28.947Z,73.0
2023-03-11T04:21:28.751Z,73.1
2023-03-11T04:26:28.713Z,73.2
2023-03-11T04:31:28.886Z,73.4
2023-03-11T04:36:28.594Z,73.5
2023-03-11T04:41:28.626Z,73.6
2023-03-11T04:46:28.928Z,73.7
2023-03-11T04:51:28.585Z,73.8
2023-03-11T04:56:28.582Z,74.0
2023-03-11T05:01:28.749Z,74.0
2023-03-11T05:06:28.590Z,74.1
2023-03-11T05:11:28.535Z,74.2
2023-03-11T05:16:28.722Z,74.3
2023-03-11T05:21:28.537Z,74.4
2023-03-11T05:26:28.555Z,74.6
2023-03-11T05:31:28.738Z,74.7
2023-03-11T05:36:28.536Z,74.8
2023-03-11T05:41:28.470Z,75.0
2023-03-11T05:46:28.730Z,74.9
2023-03-11T05:51:28.498Z,75.2
2023-03-11T05:56:28.610Z,75.3
2023-03-11T06:01:28.805Z,75.6
2023-03-11T06:06:28.507Z,76.2
2023-03-11T06:11:28.793Z,76.1
2023-03-11T06:16:28.696Z,76.2
2023-03-11T06:21:28.633Z,76.3
2023-03-11T06:26:28.479Z,76.7
2023-03-11T06:31:28.559Z,77.1
2023-03-11T06:36:28.452Z,76.9
2023-03-11T06:41:28.509Z,76.7
2023-03-11T06:46:28.595Z,76.7
2023-03-11T06:51:28.416Z,76.7
2023-03-11T06:56:28.384Z,76.8
2023-03-11T07:01:28.668Z,76.8
2023-03-11T07:06:28.309Z,77.0
2023-03-11T07:11:28.411Z,77.2
2023-03-11T07:16:28.562Z,76.9
2023-03-11T07:21:28.302Z,77.0
2023-03-11T07:26:28.348Z,77.0
2023-03-11T07:31:28.533Z,77.1
2023-03-11T07:36:28.369Z,77.0
2023-03-11T07:41:28.401Z,76.9
2023-03-11T07:46:28.696Z,76.9
2023-03-11T07:51:28.399Z,76.9
2023-03-11T07:56:28.280Z,77.1
2023-03-11T08:01:28.270Z,77.0
2023-03-11T08:06:28.339Z,77.1
2023-03-11T08:11:28.227Z,77.0
2023-03-11T08:16:28.700Z,77.0
2023-03-11T08:21:28.332Z,77.1
2023-03-11T08:26:28.193Z,77.4
2023-03-11T08:31:28.250Z,78.0
2023-03-11T08:36:28.217Z,78.0
2023-03-11T08:41:28.351Z,78.2
2023-03-11T08:46:28.471Z,78.2
2023-03-11T08:51:28.152Z,78.5
2023-03-11T08:56:28.216Z,78.3
2023-03-11T09:01:28.368Z,78.1
2023-03-11T09:06:28.384Z,78.3
2023-03-11T09:11:28.319Z,78.2
2023-03-11T09:16:28.380Z,78.1
2023-03-11T09:21:28.320Z,78.1
2023-03-11T09:26:28.324Z,78.0
2023-03-11T09:31:28.207Z,78.2
2023-03-11T09:36:29.008Z,78.4
2023-03-11T09:41:28.203Z,78.8
2023-03-11T09:46:28.515Z,78.4
2023-03-11T09:51:28.446Z,78.7
2023-03-11T09:56:28.199Z,78.9
2023-03-11T10:01:28.213Z,78.7
2023-03-11T10:06:28.235Z,78.9
2023-03-11T10:11:28.255Z,79.4
2023-03-11T10:16:28.338Z,79.2
2023-03-11T10:21:28.305Z,79.0
2023-03-11T10:26:28.060Z,79.0
2023-03-11T10:31:28.134Z,79.1
2023-03-11T10:36:28.406Z,79.2
2023-03-11T10:41:28.169Z,79.6
2023-03-11T10:46:27.937Z,79.8
2023-03-11T10:51:27.927Z,79.5
2023-03-11T10:56:28.418Z,79.9
2023-03-11T11:01:27.954Z,79.6
2023-03-11T11:06:28.869Z,79.9
2023-03-11T11:11:28.011Z,80.0
2023-03-11T11:16:28.118Z,79.9
2023-03-11T11:21:28.061Z,80.0
2023-03-11T11:26:28.046Z,80.0
2023-03-11T11:31:28.314Z,80.3
2023-03-11T11:36:28.198Z,80.2
2023-03-11T11:41:27.914Z,80.5
2023-03-11T11:46:27.892Z,80.2
2023-03-11T11:51:28.093Z,80.2
2023-03-11T11:56:27.848Z,80.4
2023-03-11T12:01:27.937Z,80.2
2023-03-11T12:06:27.929Z,80.2
2023-03-11T12:11:28.724Z,80.2
2023-03-11T12:16:27.857Z,80.1
2023-03-11T12:21:27.899Z,80.0
2023-03-11T12:26:28.127Z,80.2
2023-03-11T12:31:27.899Z,80.1
2023-03-11T12:36:27.844Z,80.2
2023-03-11T12:41:27.764Z,80.0
2023-03-11T12:46:27.864Z,79.9
2023-03-11T12:51:28.068Z,80.0
2023-03-11T12:56:27.798Z,80.1
2023-03-11T13:01:28.006Z,79.9
2023-03-11T13:06:28.517Z,79.9
2023-03-11T13:11:28.072Z,80.0
2023-03-11T13:16:27.769Z,79.9
2023-03-11T13:21:27.778Z,79.9
2023-03-11T13:31:28.014Z,79.7
2023-03-11T13:36:27.577Z,79.7
2023-03-11T13:41:28.189Z,79.7
2023-03-11T13:46:27.734Z,79.6
2023-03-11T13:51:27.802Z,79.6
2023-03-11T13:56:27.559Z,79.3
2023-03-11T14:01:27.718Z,79.0
2023-03-11T14:06:27.645Z,79.1
2023-03-11T14:11:27.889Z,79.2
2023-03-11T14:16:27.655Z,79.2
2023-03-11T14:21:27.607Z,79.3
2023-03-11T14:26:27.767Z,79.4
2023-03-11T14:31:28.561Z,79.4
2023-03-11T14:36:27.478Z,79.4
2023-03-11T14:41:27.524Z,79.5
2023-03-11T14:46:27.677Z,79.7
2023-03-11T14:51:28.334Z,79.6
2023-03-11T14:56:27.483Z,79.8
2023-03-11T15:01:28.303Z,79.9
2023-03-11T15:06:27.590Z,79.8
2023-03-11T15:11:27.573Z,79.9
2023-03-11T15:16:27.804Z,79.9
2023-03-11T15:21:27.542Z,79.8
2023-03-11T15:26:27.762Z,80.0
2023-03-11T15:31:27.790Z,80.0
2023-03-11T15:36:28.336Z,79.9
2023-03-11T15:41:27.449Z,80.0
2023-03-11T15:46:27.460Z,80.0
2023-03-11T15:51:27.392Z,79.9
2023-03-11T15:56:27.425Z,79.8
2023-03-11T16:01:27.971Z,79.9
2023-03-11T16:06:27.732Z,79.9
2023-03-11T16:11:27.808Z,80.0
2023-03-11T16:16:28.147Z,80.1
2023-03-11T16:21:27.843Z,80.1
2023-03-11T16:26:27.658Z,80.1
2023-03-11T16:31:27.844Z,79.9
2023-03-11T16:36:27.293Z,79.9
2023-03-11T16:41:27.303Z,79.7
2023-03-11T16:46:28.458Z,79.7
2023-03-11T16:51:27.407Z,79.7
2023-03-11T16:56:27.281Z,79.6
2023-03-11T17:01:27.310Z,79.6
2023-03-11T17:06:27.267Z,79.4
2023-03-11T17:11:27.269Z,79.2
2023-03-11T17:16:27.477Z,79.3
2023-03-11T17:21:27.362Z,79.3
2023-03-11T17:26:27.394Z,79.3
2023-03-11T17:31:27.490Z,79.3
2023-03-11T17:36:27.239Z,79.3
2023-03-11T17:41:27.397Z,79.2
2023-03-11T17:46:27.474Z,79.2
2023-03-11T17:51:27.268Z,79.2
2023-03-11T17:56:27.278Z,79.2
2023-03-11T18:01:27.349Z,79.2
2023-03-11T18:06:27.479Z,79.2
2023-03-11T18:11:27.780Z,79.3
2023-03-11T18:16:27.526Z,79.3
2023-03-11T18:21:27.437Z,79.4
2023-03-11T18:26:27.180Z,79.3
2023-03-11T18:31:27.439Z,79.3
2023-03-11T18:36:27.336Z,79.3
2023-03-11T18:41:27.146Z,79.3
2023-03-11T18:46:28.012Z,79.4
2023-03-11T18:51:28.232Z,79.4
2023-03-11T18:56:27.203Z,79.4
2023-03-11T19:01:28.368Z,79.6
2023-03-11T19:06:27.128Z,79.4
2023-03-11T19:11:27.012Z,79.4
2023-03-11T19:16:27.999Z,79.4
2023-03-11T19:21:26.992Z,79.4
2023-03-11T19:26:43.212Z,79.4
2023-03-11T19:31:27.270Z,79.3
2023-03-11T19:36:26.968Z,79.4
2023-03-11T19:41:27.013Z,79.4
2023-03-11T19:46:27.270Z,79.4
2023-03-11T19:51:32.963Z,79.4
2023-03-11T19:56:26.903Z,79.4
2023-03-11T20:01:26.976Z,79.4
2023-03-11T20:06:27.082Z,79.4
2023-03-11T20:11:27.321Z,79.4
2023-03-11T20:16:27.076Z,79.4
2023-03-11T20:21:27.701Z,79.4
2023-03-11T20:26:27.669Z,79.3
2023-03-11T20:31:27.793Z,79.3
2023-03-11T20:36:27.633Z,79.4
2023-03-11T20:41:27.591Z,79.4
2023-03-11T20:46:26.950Z,79.4
2023-03-11T20:51:27.730Z,79.4
2023-03-11T20:56:26.836Z,79.4
2023-03-11T21:01:26.845Z,79.3
2023-03-11T21:06:26.940Z,79.4
2023-03-11T21:11:27.714Z,79.4
2023-03-11T21:16:27.505Z,79.4
2023-03-11T21:21:28.274Z,79.4
2023-03-11T21:26:26.841Z,79.4
2023-03-11T21:31:29.057Z,79.4
2023-03-11T21:36:27.207Z,79.4
2023-03-11T21:41:26.769Z,79.4
2023-03-11T21:46:27.077Z,79.4
2023-03-11T21:51:27.667Z,79.4
2023-03-11T21:56:27.013Z,79.3
2023-03-11T22:01:26.891Z,79.2
2023-03-11T22:06:27.161Z,79.2
2023-03-11T22:11:27.032Z,79.3
2023-03-11T22:16:28.200Z,79.3
2023-03-11T22:21:28.337Z,79.3
2023-03-11T22:26:26.719Z,79.4
2023-03-11T22:31:26.763Z,79.3
2023-03-11T22:36:26.892Z,79.4
2023-03-11T22:41:26.724Z,79.4
2023-03-11T22:46:27.833Z,79.4
2023-03-11T22:51:26.816Z,79.4
2023-03-11T22:56:26.781Z,79.3
2023-03-11T23:01:26.578Z,79.3
2023-03-11T23:06:26.525Z,79.2
2023-03-11T23:11:26.540Z,79.2
2023-03-11T23:16:26.603Z,79.2
2023-03-11T23:21:26.627Z,79.2
2023-03-11T23:26:26.685Z,79.2
2023-03-11T23:31:26.710Z,79.1
2023-03-11T23:36:26.746Z,79.1
2023-03-11T23:41:26.567Z,79.1
2023-03-11T23:46:26.859Z,79.2
2023-03-11T23:51:26.644Z,79.3
2023-03-11T23:56:26.571Z,79.3
